sensor_id;sensor_type;location;lat;lon;timestamp;P1;durP1;ratioP1;P2;durP2;ratioP2
11655;SDS011;5884;43.618;1.438;2023-04-25T04:45:14;2.30;;;1.00;;
11655;SDS011;5884;43.618;1.438;2023-04-25T04:47:44;2.50;;;1.10;;
11655;SDS011;5884;43.618;1.438;2023-04-25T04:50:11;1.33;;;0.80;;
11655;SDS011;5884;43.618;1.438;2023-04-25T04:52:40;2.07;;;1.00;;
11655;SDS011;5884;43.618;1.438;2023-04-25T04:55:07;2.23;;;0.90;;
11655;SDS011;5884;43.618;1.438;2023-04-25T04:57:35;1.33;;;0.90;;
11655;SDS011;5884;43.618;1.438;2023-04-25T05:00:04;2.40;;;1.20;;
11655;SDS011;5884;43.618;1.438;2023-04-25T05:02:37;1.73;;;0.97;;
11655;SDS011;5884;43.618;1.438;2023-04-25T05:05:05;4.17;;;1.10;;
11655;SDS011;5884;43.618;1.438;2023-04-25T05:07:33;1.90;;;1.07;;
11655;SDS011;5884;43.618;1.438;2023-04-25T05:10:01;2.07;;;1.47;;
11655;SDS011;5884;43.618;1.438;2023-04-25T05:12:29;1.63;;;1.00;;
11655;SDS011;5884;43.618;1.438;2023-04-25T05:14:56;1.73;;;1.20;;
11655;SDS011;5884;43.618;1.438;2023-04-25T05:17:24;1.43;;;0.90;;
11655;SDS011;5884;43.618;1.438;2023-04-25T05:19:52;2.93;;;1.27;;
11655;SDS011;5884;43.618;1.438;2023-04-25T05:22:19;2.37;;;1.20;;
11655;SDS011;5884;43.618;1.438;2023-04-25T05:24:46;2.17;;;1.20;;
11655;SDS011;5884;43.618;1.438;2023-04-25T05:27:16;2.67;;;1.23;;
11655;SDS011;5884;43.618;1.438;2023-04-25T05:29:43;2.43;;;1.37;;
11655;SDS011;5884;43.618;1.438;2023-04-25T05:32:10;2.60;;;1.20;;
11655;SDS011;5884;43.618;1.438;2023-04-25T05:34:37;2.13;;;1.13;;
11655;SDS011;5884;43.618;1.438;2023-04-25T05:37:06;2.07;;;1.13;;
11655;SDS011;5884;43.618;1.438;2023-04-25T05:39:33;2.70;;;1.27;;
11655;SDS011;5884;43.618;1.438;2023-04-25T05:42:01;1.57;;;1.43;;
11655;SDS011;5884;43.618;1.438;2023-04-25T05:44:28;2.17;;;1.53;;
11655;SDS011;5884;43.618;1.438;2023-04-25T05:46:56;1.87;;;1.20;;
11655;SDS011;5884;43.618;1.438;2023-04-25T05:49:23;3.07;;;1.53;;
11655;SDS011;5884;43.618;1.438;2023-04-25T05:51:51;3.23;;;1.30;;
11655;SDS011;5884;43.618;1.438;2023-04-25T05:54:19;2.50;;;1.40;;
11655;SDS011;5884;43.618;1.438;2023-04-25T05:56:46;1.80;;;1.50;;
11655;SDS011;5884;43.618;1.438;2023-04-25T05:59:13;1.37;;;1.17;;
11655;SDS011;5884;43.618;1.438;2023-04-25T06:01:41;3.63;;;1.70;;
11655;SDS011;5884;43.618;1.438;2023-04-25T06:04:08;3.47;;;1.67;;
11655;SDS011;5884;43.618;1.438;2023-04-25T06:06:35;2.70;;;1.50;;
11655;SDS011;5884;43.618;1.438;2023-04-25T06:09:03;3.03;;;1.67;;
11655;SDS011;5884;43.618;1.438;2023-04-25T06:11:31;2.73;;;1.57;;
11655;SDS011;5884;43.618;1.438;2023-04-25T06:13:58;2.77;;;1.43;;
11655;SDS011;5884;43.618;1.438;2023-04-25T06:16:26;4.27;;;1.53;;
11655;SDS011;5884;43.618;1.438;2023-04-25T06:18:53;2.13;;;1.50;;
11655;SDS011;5884;43.618;1.438;2023-04-25T06:21:20;4.60;;;1.50;;
11655;SDS011;5884;43.618;1.438;2023-04-25T06:23:48;1.53;;;1.40;;
11655;SDS011;5884;43.618;1.438;2023-04-25T06:26:15;2.00;;;1.40;;
11655;SDS011;5884;43.618;1.438;2023-04-25T06:28:43;1.53;;;1.30;;
11655;SDS011;5884;43.618;1.438;2023-04-25T06:31:11;2.63;;;1.20;;
11655;SDS011;5884;43.618;1.438;2023-04-25T06:33:38;1.13;;;1.03;;
11655;SDS011;5884;43.618;1.438;2023-04-25T06:36:05;1.43;;;1.20;;
11655;SDS011;5884;43.618;1.438;2023-04-25T06:38:33;2.63;;;1.40;;
11655;SDS011;5884;43.618;1.438;2023-04-25T06:41:00;1.67;;;1.40;;
11655;SDS011;5884;43.618;1.438;2023-04-25T06:43:27;2.30;;;1.23;;
11655;SDS011;5884;43.618;1.438;2023-04-25T06:45:59;1.57;;;0.93;;
11655;SDS011;5884;43.618;1.438;2023-04-25T06:48:26;2.07;;;1.20;;
11655;SDS011;5884;43.618;1.438;2023-04-25T06:50:54;2.23;;;1.50;;
11655;SDS011;5884;43.618;1.438;2023-04-25T06:53:21;2.00;;;1.27;;
11655;SDS011;5884;43.618;1.438;2023-04-25T06:55:48;2.30;;;1.53;;
11655;SDS011;5884;43.618;1.438;2023-04-25T06:58:16;1.83;;;0.97;;
11655;SDS011;5884;43.618;1.438;2023-04-25T07:00:43;2.80;;;0.93;;
11655;SDS011;5884;43.618;1.438;2023-04-25T07:03:12;2.30;;;1.30;;
11655;SDS011;5884;43.618;1.438;2023-04-25T07:05:39;1.13;;;1.03;;
11655;SDS011;5884;43.618;1.438;2023-04-25T07:08:07;2.43;;;1.20;;
11655;SDS011;5884;43.618;1.438;2023-04-25T07:10:34;3.30;;;1.00;;
11655;SDS011;5884;43.618;1.438;2023-04-25T07:13:01;1.00;;;0.70;;
11655;SDS011;5884;43.618;1.438;2023-04-25T07:15:28;1.03;;;0.90;;
11655;SDS011;5884;43.618;1.438;2023-04-25T07:17:56;1.30;;;0.60;;
11655;SDS011;5884;43.618;1.438;2023-04-25T07:20:24;0.40;;;0.30;;
11655;SDS011;5884;43.618;1.438;2023-04-25T07:22:52;0.73;;;0.50;;
11655;SDS011;5884;43.618;1.438;2023-04-25T07:25:19;1.20;;;0.37;;
11655;SDS011;5884;43.618;1.438;2023-04-25T07:27:47;0.60;;;0.50;;
11655;SDS011;5884;43.618;1.438;2023-04-25T07:30:14;0.60;;;0.40;;
11655;SDS011;5884;43.618;1.438;2023-04-25T07:32:41;0.97;;;0.30;;
11655;SDS011;5884;43.618;1.438;2023-04-25T07:35:09;0.97;;;0.30;;
11655;SDS011;5884;43.618;1.438;2023-04-25T07:37:37;0.93;;;0.40;;
11655;SDS011;5884;43.618;1.438;2023-04-25T07:40:05;0.60;;;0.50;;
11655;SDS011;5884;43.618;1.438;2023-04-25T07:42:34;0.50;;;0.50;;
11655;SDS011;5884;43.618;1.438;2023-04-25T07:45:02;0.83;;;0.50;;
11655;SDS011;5884;43.618;1.438;2023-04-25T07:47:29;1.60;;;0.40;;
11655;SDS011;5884;43.618;1.438;2023-04-25T07:49:56;0.60;;;0.40;;
11655;SDS011;5884;43.618;1.438;2023-04-25T07:52:24;0.60;;;0.47;;
11655;SDS011;5884;43.618;1.438;2023-04-25T07:54:52;3.20;;;0.77;;
11655;SDS011;5884;43.618;1.438;2023-04-25T07:57:20;1.67;;;0.60;;
11655;SDS011;5884;43.618;1.438;2023-04-25T07:59:47;0.70;;;0.60;;
11655;SDS011;5884;43.618;1.438;2023-04-25T08:02:14;0.57;;;0.40;;
11655;SDS011;5884;43.618;1.438;2023-04-25T08:04:41;1.80;;;0.50;;
11655;SDS011;5884;43.618;1.438;2023-04-25T08:07:08;0.97;;;0.60;;
11655;SDS011;5884;43.618;1.438;2023-04-25T08:09:36;2.20;;;0.60;;
11655;SDS011;5884;43.618;1.438;2023-04-25T08:12:04;0.70;;;0.60;;
11655;SDS011;5884;43.618;1.438;2023-04-25T08:14:32;2.33;;;0.80;;
11655;SDS011;5884;43.618;1.438;2023-04-25T08:17:02;4.10;;;0.70;;
11655;SDS011;5884;43.618;1.438;2023-04-25T08:19:30;1.23;;;0.80;;
11655;SDS011;5884;43.618;1.438;2023-04-25T08:21:57;0.70;;;0.70;;
11655;SDS011;5884;43.618;1.438;2023-04-25T08:24:24;0.93;;;0.60;;
11655;SDS011;5884;43.618;1.438;2023-04-25T08:26:51;1.40;;;0.73;;
11655;SDS011;5884;43.618;1.438;2023-04-25T08:29:20;1.57;;;0.67;;
11655;SDS011;5884;43.618;1.438;2023-04-25T08:31:49;0.90;;;0.43;;
11655;SDS011;5884;43.618;1.438;2023-04-25T08:34:17;2.10;;;0.60;;
11655;SDS011;5884;43.618;1.438;2023-04-25T08:36:45;1.17;;;0.50;;
11655;SDS011;5884;43.618;1.438;2023-04-25T08:39:12;1.50;;;0.70;;
11655;SDS011;5884;43.618;1.438;2023-04-25T08:41:40;0.90;;;0.60;;
11655;SDS011;5884;43.618;1.438;2023-04-25T08:44:08;1.63;;;0.83;;
11655;SDS011;5884;43.618;1.438;2023-04-25T08:46:39;2.77;;;0.70;;
11655;SDS011;5884;43.618;1.438;2023-04-25T08:49:07;1.10;;;0.50;;
11655;SDS011;5884;43.618;1.438;2023-04-25T08:51:36;1.83;;;0.40;;
11655;SDS011;5884;43.618;1.438;2023-04-25T08:54:11;1.43;;;0.50;;
11655;SDS011;5884;43.618;1.438;2023-04-25T08:56:41;0.90;;;0.63;;
11655;SDS011;5884;43.618;1.438;2023-04-25T08:59:11;1.30;;;0.70;;
11655;SDS011;5884;43.618;1.438;2023-04-25T09:01:40;0.43;;;0.40;;
11655;SDS011;5884;43.618;1.438;2023-04-25T09:04:07;2.73;;;0.60;;
11655;SDS011;5884;43.618;1.438;2023-04-25T09:06:34;1.10;;;0.57;;
11655;SDS011;5884;43.618;1.438;2023-04-25T09:09:02;0.60;;;0.50;;
11655;SDS011;5884;43.618;1.438;2023-04-25T09:11:32;0.70;;;0.60;;
11655;SDS011;5884;43.618;1.438;2023-04-25T09:14:10;1.10;;;0.70;;
11655;SDS011;5884;43.618;1.438;2023-04-25T09:16:59;1.20;;;0.70;;
11655;SDS011;5884;43.618;1.438;2023-04-25T09:19:29;0.97;;;0.60;;
11655;SDS011;5884;43.618;1.438;2023-04-25T09:22:00;2.50;;;0.60;;
11655;SDS011;5884;43.618;1.438;2023-04-25T09:24:33;0.90;;;0.63;;
11655;SDS011;5884;43.618;1.438;2023-04-25T09:27:03;1.10;;;0.80;;
11655;SDS011;5884;43.618;1.438;2023-04-25T09:29:32;2.00;;;0.83;;
11655;SDS011;5884;43.618;1.438;2023-04-25T09:32:12;1.83;;;0.73;;
11655;SDS011;5884;43.618;1.438;2023-04-25T09:34:45;1.53;;;0.60;;
11655;SDS011;5884;43.618;1.438;2023-04-25T09:37:19;1.50;;;0.70;;
11655;SDS011;5884;43.618;1.438;2023-04-25T09:39:48;4.50;;;0.60;;
11655;SDS011;5884;43.618;1.438;2023-04-25T09:42:20;2.33;;;0.50;;
11655;SDS011;5884;43.618;1.438;2023-04-25T09:44:50;1.00;;;0.60;;
11655;SDS011;5884;43.618;1.438;2023-04-25T09:47:22;0.97;;;0.60;;
11655;SDS011;5884;43.618;1.438;2023-04-25T09:49:52;1.07;;;0.60;;
11655;SDS011;5884;43.618;1.438;2023-04-25T09:52:20;3.23;;;0.80;;
11655;SDS011;5884;43.618;1.438;2023-04-25T09:54:50;1.07;;;0.80;;
11655;SDS011;5884;43.618;1.438;2023-04-25T09:57:18;2.53;;;0.80;;
11655;SDS011;5884;43.618;1.438;2023-04-25T09:59:47;0.93;;;0.80;;
11655;SDS011;5884;43.618;1.438;2023-04-25T10:02:16;2.57;;;1.07;;
11655;SDS011;5884;43.618;1.438;2023-04-25T10:04:48;1.40;;;0.90;;
11655;SDS011;5884;43.618;1.438;2023-04-25T10:07:19;1.40;;;0.90;;
11655;SDS011;5884;43.618;1.438;2023-04-25T10:09:51;1.93;;;1.73;;
11655;SDS011;5884;43.618;1.438;2023-04-25T10:12:26;2.10;;;1.23;;
11655;SDS011;5884;43.618;1.438;2023-04-25T10:14:53;1.30;;;1.20;;
11655;SDS011;5884;43.618;1.438;2023-04-25T10:17:21;1.97;;;0.97;;
11655;SDS011;5884;43.618;1.438;2023-04-25T10:19:50;1.30;;;1.20;;
11655;SDS011;5884;43.618;1.438;2023-04-25T10:22:20;1.90;;;0.90;;
11655;SDS011;5884;43.618;1.438;2023-04-25T10:25:02;1.53;;;1.20;;
11655;SDS011;5884;43.618;1.438;2023-04-25T10:27:31;2.13;;;1.10;;
11655;SDS011;5884;43.618;1.438;2023-04-25T10:30:02;1.50;;;1.00;;
11655;SDS011;5884;43.618;1.438;2023-04-25T10:32:31;1.47;;;0.90;;
11655;SDS011;5884;43.618;1.438;2023-04-25T10:35:11;0.97;;;0.73;;
11655;SDS011;5884;43.618;1.438;2023-04-25T10:40:27;1.90;;;0.90;;
11655;SDS011;5884;43.618;1.438;2023-04-25T10:42:55;0.80;;;0.80;;
11655;SDS011;5884;43.618;1.438;2023-04-25T10:46:01;0.90;;;0.80;;
11655;SDS011;5884;43.618;1.438;2023-04-25T10:48:30;1.60;;;0.90;;
11655;SDS011;5884;43.618;1.438;2023-04-25T10:51:08;2.67;;;0.80;;
11655;SDS011;5884;43.618;1.438;2023-04-25T10:53:36;2.37;;;0.87;;
11655;SDS011;5884;43.618;1.438;2023-04-25T10:56:09;1.43;;;0.70;;
11655;SDS011;5884;43.618;1.438;2023-04-25T10:58:41;0.93;;;0.63;;
11655;SDS011;5884;43.618;1.438;2023-04-25T11:01:09;0.80;;;0.60;;
11655;SDS011;5884;43.618;1.438;2023-04-25T11:03:38;0.90;;;0.60;;
11655;SDS011;5884;43.618;1.438;2023-04-25T11:06:11;1.00;;;0.77;;
11655;SDS011;5884;43.618;1.438;2023-04-25T11:08:50;1.00;;;0.80;;
11655;SDS011;5884;43.618;1.438;2023-04-25T11:11:17;0.70;;;0.67;;
11655;SDS011;5884;43.618;1.438;2023-04-25T11:13:47;2.90;;;0.87;;
11655;SDS011;5884;43.618;1.438;2023-04-25T11:16:15;0.60;;;0.50;;
11655;SDS011;5884;43.618;1.438;2023-04-25T11:18:43;1.53;;;0.53;;
11655;SDS011;5884;43.618;1.438;2023-04-25T11:21:13;0.70;;;0.60;;
11655;SDS011;5884;43.618;1.438;2023-04-25T11:23:40;1.20;;;0.63;;
11655;SDS011;5884;43.618;1.438;2023-04-25T11:26:11;1.17;;;0.70;;
11655;SDS011;5884;43.618;1.438;2023-04-25T11:28:40;1.57;;;0.60;;
11655;SDS011;5884;43.618;1.438;2023-04-25T11:31:11;1.03;;;0.93;;
11655;SDS011;5884;43.618;1.438;2023-04-25T11:33:38;2.27;;;0.80;;
11655;SDS011;5884;43.618;1.438;2023-04-25T11:36:06;1.00;;;0.90;;
11655;SDS011;5884;43.618;1.438;2023-04-25T11:38:35;1.20;;;0.90;;
11655;SDS011;5884;43.618;1.438;2023-04-25T11:41:02;1.20;;;1.10;;
11655;SDS011;5884;43.618;1.438;2023-04-25T11:43:30;0.70;;;0.70;;
11655;SDS011;5884;43.618;1.438;2023-04-25T11:45:57;0.57;;;0.47;;
11655;SDS011;5884;43.618;1.438;2023-04-25T11:48:24;0.97;;;0.80;;
11655;SDS011;5884;43.618;1.438;2023-04-25T11:50:53;1.40;;;0.60;;
11655;SDS011;5884;43.618;1.438;2023-04-25T11:53:21;2.00;;;0.63;;
11655;SDS011;5884;43.618;1.438;2023-04-25T11:55:51;0.73;;;0.60;;
11655;SDS011;5884;43.618;1.438;2023-04-25T11:58:18;0.77;;;0.70;;
11655;SDS011;5884;43.618;1.438;2023-04-25T12:00:45;2.77;;;0.70;;
11655;SDS011;5884;43.618;1.438;2023-04-25T12:03:13;1.70;;;0.70;;
11655;SDS011;5884;43.618;1.438;2023-04-25T12:05:40;1.77;;;0.80;;
11655;SDS011;5884;43.618;1.438;2023-04-25T12:08:10;0.80;;;0.70;;
11655;SDS011;5884;43.618;1.438;2023-04-25T12:10:38;2.20;;;0.80;;
11655;SDS011;5884;43.618;1.438;2023-04-25T12:13:21;0.80;;;0.80;;
11655;SDS011;5884;43.618;1.438;2023-04-25T12:15:50;1.20;;;0.90;;
11655;SDS011;5884;43.618;1.438;2023-04-25T12:18:22;1.37;;;0.90;;
11655;SDS011;5884;43.618;1.438;2023-04-25T12:20:52;2.17;;;1.00;;
11655;SDS011;5884;43.618;1.438;2023-04-25T12:23:24;5.07;;;2.70;;
11655;SDS011;5884;43.618;1.438;2023-04-25T12:25:53;1.53;;;1.43;;
11655;SDS011;5884;43.618;1.438;2023-04-25T12:28:23;2.43;;;1.00;;
11655;SDS011;5884;43.618;1.438;2023-04-25T12:30:55;1.53;;;1.40;;
11655;SDS011;5884;43.618;1.438;2023-04-25T12:33:26;2.60;;;0.70;;
11655;SDS011;5884;43.618;1.438;2023-04-25T12:35:54;1.73;;;1.10;;
11655;SDS011;5884;43.618;1.438;2023-04-25T12:38:23;1.33;;;1.03;;
11655;SDS011;5884;43.618;1.438;2023-04-25T12:40:51;2.53;;;1.13;;
11655;SDS011;5884;43.618;1.438;2023-04-25T12:43:18;1.70;;;1.30;;
11655;SDS011;5884;43.618;1.438;2023-04-25T12:45:48;1.80;;;1.30;;
11655;SDS011;5884;43.618;1.438;2023-04-25T12:48:16;1.50;;;1.13;;
11655;SDS011;5884;43.618;1.438;2023-04-25T12:50:44;1.47;;;1.20;;
11655;SDS011;5884;43.618;1.438;2023-04-25T12:53:13;2.07;;;1.57;;
11655;SDS011;5884;43.618;1.438;2023-04-25T12:55:41;3.17;;;1.50;;
11655;SDS011;5884;43.618;1.438;2023-04-25T12:58:08;17.97;;;3.63;;
11655;SDS011;5884;43.618;1.438;2023-04-25T13:00:35;7.53;;;1.77;;
11655;SDS011;5884;43.618;1.438;2023-04-25T13:03:04;2.23;;;1.60;;
11655;SDS011;5884;43.618;1.438;2023-04-25T13:05:31;2.40;;;1.60;;
11655;SDS011;5884;43.618;1.438;2023-04-25T13:07:59;2.07;;;1.50;;
11655;SDS011;5884;43.618;1.438;2023-04-25T13:10:26;4.93;;;1.77;;
11655;SDS011;5884;43.618;1.438;2023-04-25T13:12:53;3.40;;;1.70;;
11655;SDS011;5884;43.618;1.438;2023-04-25T13:15:20;3.93;;;1.50;;
11655;SDS011;5884;43.618;1.438;2023-04-25T13:17:48;2.50;;;1.23;;
11655;SDS011;5884;43.618;1.438;2023-04-25T13:20:16;2.80;;;1.10;;
11655;SDS011;5884;43.618;1.438;2023-04-25T13:22:47;1.63;;;1.50;;
11655;SDS011;5884;43.618;1.438;2023-04-25T13:25:14;1.63;;;1.37;;
11655;SDS011;5884;43.618;1.438;2023-04-25T13:27:42;1.27;;;1.17;;
11655;SDS011;5884;43.618;1.438;2023-04-25T13:30:10;1.73;;;1.30;;
11655;SDS011;5884;43.618;1.438;2023-04-25T13:32:37;1.33;;;1.23;;
11655;SDS011;5884;43.618;1.438;2023-04-25T13:35:07;2.20;;;1.30;;
11655;SDS011;5884;43.618;1.438;2023-04-25T13:37:37;1.30;;;1.10;;
11655;SDS011;5884;43.618;1.438;2023-04-25T13:40:05;1.70;;;1.00;;
11655;SDS011;5884;43.618;1.438;2023-04-25T13:42:35;0.77;;;0.70;;
11655;SDS011;5884;43.618;1.438;2023-04-25T13:45:03;1.10;;;0.90;;
11655;SDS011;5884;43.618;1.438;2023-04-25T13:47:32;2.00;;;0.90;;
11655;SDS011;5884;43.618;1.438;2023-04-25T13:50:00;2.03;;;1.40;;
11655;SDS011;5884;43.618;1.438;2023-04-25T13:52:28;2.37;;;1.00;;
11655;SDS011;5884;43.618;1.438;2023-04-25T13:54:57;2.30;;;1.07;;
11655;SDS011;5884;43.618;1.438;2023-04-25T13:57:24;1.40;;;1.07;;
11655;SDS011;5884;43.618;1.438;2023-04-25T13:59:51;1.43;;;1.00;;
11655;SDS011;5884;43.618;1.438;2023-04-25T14:02:19;1.40;;;1.00;;
11655;SDS011;5884;43.618;1.438;2023-04-25T14:04:46;2.73;;;0.87;;
11655;SDS011;5884;43.618;1.438;2023-04-25T14:07:13;1.43;;;1.00;;
11655;SDS011;5884;43.618;1.438;2023-04-25T14:09:42;1.10;;;1.00;;
11655;SDS011;5884;43.618;1.438;2023-04-25T14:12:11;1.83;;;1.10;;
11655;SDS011;5884;43.618;1.438;2023-04-25T14:14:39;3.17;;;1.00;;
11655;SDS011;5884;43.618;1.438;2023-04-25T14:17:06;1.10;;;0.90;;
11655;SDS011;5884;43.618;1.438;2023-04-25T14:19:34;1.10;;;1.00;;
11655;SDS011;5884;43.618;1.438;2023-04-25T14:22:03;0.80;;;0.60;;
11655;SDS011;5884;43.618;1.438;2023-04-25T14:24:30;0.70;;;0.60;;
11655;SDS011;5884;43.618;1.438;2023-04-25T14:26:58;4.30;;;2.90;;
11655;SDS011;5884;43.618;1.438;2023-04-25T14:29:27;2.03;;;1.50;;
11655;SDS011;5884;43.618;1.438;2023-04-25T14:31:54;3.40;;;3.10;;
11655;SDS011;5884;43.618;1.438;2023-04-25T14:34:22;1.50;;;1.40;;
11655;SDS011;5884;43.618;1.438;2023-04-25T14:36:50;4.27;;;1.40;;
11655;SDS011;5884;43.618;1.438;2023-04-25T14:39:18;2.23;;;2.00;;
11655;SDS011;5884;43.618;1.438;2023-04-25T14:41:45;4.37;;;2.57;;
11655;SDS011;5884;43.618;1.438;2023-04-25T14:44:13;2.70;;;2.03;;
11655;SDS011;5884;43.618;1.438;2023-04-25T14:46:41;1.57;;;1.40;;
11655;SDS011;5884;43.618;1.438;2023-04-25T14:49:09;2.07;;;1.83;;
11655;SDS011;5884;43.618;1.438;2023-04-25T14:51:36;2.97;;;2.63;;
11655;SDS011;5884;43.618;1.438;2023-04-25T14:54:03;3.37;;;2.60;;
11655;SDS011;5884;43.618;1.438;2023-04-25T14:56:31;6.93;;;1.97;;
11655;SDS011;5884;43.618;1.438;2023-04-25T14:58:58;2.70;;;2.47;;
11655;SDS011;5884;43.618;1.438;2023-04-25T15:01:25;2.30;;;1.73;;
11655;SDS011;5884;43.618;1.438;2023-04-25T15:03:54;1.77;;;1.53;;
11655;SDS011;5884;43.618;1.438;2023-04-25T15:06:22;3.10;;;1.53;;
11655;SDS011;5884;43.618;1.438;2023-04-25T15:08:51;2.33;;;2.03;;
11655;SDS011;5884;43.618;1.438;2023-04-25T15:11:18;3.47;;;2.40;;
11655;SDS011;5884;43.618;1.438;2023-04-25T15:13:47;3.63;;;2.10;;
11655;SDS011;5884;43.618;1.438;2023-04-25T15:16:14;2.50;;;2.13;;
11655;SDS011;5884;43.618;1.438;2023-04-25T15:18:41;3.67;;;2.80;;
11655;SDS011;5884;43.618;1.438;2023-04-25T15:21:10;1.83;;;1.73;;
11655;SDS011;5884;43.618;1.438;2023-04-25T15:23:37;3.03;;;2.00;;
11655;SDS011;5884;43.618;1.438;2023-04-25T15:26:04;2.57;;;2.30;;
11655;SDS011;5884;43.618;1.438;2023-04-25T15:28:31;2.57;;;1.80;;
11655;SDS011;5884;43.618;1.438;2023-04-25T15:30:59;2.53;;;2.00;;
11655;SDS011;5884;43.618;1.438;2023-04-25T15:33:27;3.17;;;1.60;;
11655;SDS011;5884;43.618;1.438;2023-04-25T15:35:54;2.70;;;2.13;;
11655;SDS011;5884;43.618;1.438;2023-04-25T15:38:24;3.83;;;1.50;;
11655;SDS011;5884;43.618;1.438;2023-04-25T15:40:51;2.43;;;2.23;;
11655;SDS011;5884;43.618;1.438;2023-04-25T15:43:18;4.33;;;3.20;;
11655;SDS011;5884;43.618;1.438;2023-04-25T15:45:46;1.93;;;1.30;;
11655;SDS011;5884;43.618;1.438;2023-04-25T15:48:13;2.27;;;2.07;;
11655;SDS011;5884;43.618;1.438;2023-04-25T15:50:40;4.43;;;2.50;;
11655;SDS011;5884;43.618;1.438;2023-04-25T15:53:08;4.20;;;1.80;;
11655;SDS011;5884;43.618;1.438;2023-04-25T15:55:37;1.97;;;1.70;;
11655;SDS011;5884;43.618;1.438;2023-04-25T15:58:05;3.60;;;3.07;;
11655;SDS011;5884;43.618;1.438;2023-04-25T16:00:32;2.10;;;1.80;;
11655;SDS011;5884;43.618;1.438;2023-04-25T16:03:02;1.87;;;1.50;;
11655;SDS011;5884;43.618;1.438;2023-04-25T16:05:29;3.10;;;1.80;;
11655;SDS011;5884;43.618;1.438;2023-04-25T16:07:57;3.53;;;2.07;;
11655;SDS011;5884;43.618;1.438;2023-04-25T16:10:24;5.07;;;1.97;;
11655;SDS011;5884;43.618;1.438;2023-04-25T16:12:53;2.63;;;1.60;;
11655;SDS011;5884;43.618;1.438;2023-04-25T16:15:20;4.73;;;1.90;;
11655;SDS011;5884;43.618;1.438;2023-04-25T16:17:48;2.60;;;2.40;;
11655;SDS011;5884;43.618;1.438;2023-04-25T16:20:16;5.00;;;1.70;;
11655;SDS011;5884;43.618;1.438;2023-04-25T16:22:43;4.20;;;3.80;;
11655;SDS011;5884;43.618;1.438;2023-04-25T16:25:12;5.47;;;3.60;;
11655;SDS011;5884;43.618;1.438;2023-04-25T16:27:39;8.43;;;4.30;;
11655;SDS011;5884;43.618;1.438;2023-04-25T16:30:08;5.77;;;5.17;;
11655;SDS011;5884;43.618;1.438;2023-04-25T16:32:36;7.67;;;6.97;;
11655;SDS011;5884;43.618;1.438;2023-04-25T16:35:05;10.80;;;9.77;;
11655;SDS011;5884;43.618;1.438;2023-04-25T16:37:33;8.83;;;8.13;;
11655;SDS011;5884;43.618;1.438;2023-04-25T16:40:01;6.60;;;6.00;;
11655;SDS011;5884;43.618;1.438;2023-04-25T16:42:30;8.63;;;7.83;;
11655;SDS011;5884;43.618;1.438;2023-04-25T16:44:57;12.03;;;10.93;;
11655;SDS011;5884;43.618;1.438;2023-04-25T16:47:26;11.60;;;9.37;;
11655;SDS011;5884;43.618;1.438;2023-04-25T16:49:53;9.80;;;8.83;;
11655;SDS011;5884;43.618;1.438;2023-04-25T16:52:20;10.27;;;8.80;;
11655;SDS011;5884;43.618;1.438;2023-04-25T16:54:47;9.13;;;6.83;;
11655;SDS011;5884;43.618;1.438;2023-04-25T16:57:15;5.53;;;3.97;;
11655;SDS011;5884;43.618;1.438;2023-04-25T16:59:42;4.73;;;3.90;;
11655;SDS011;5884;43.618;1.438;2023-04-25T17:02:10;5.77;;;5.30;;
11655;SDS011;5884;43.618;1.438;2023-04-25T17:04:39;7.47;;;6.77;;
11655;SDS011;5884;43.618;1.438;2023-04-25T17:07:07;12.03;;;10.67;;
11655;SDS011;5884;43.618;1.438;2023-04-25T17:09:34;15.17;;;13.57;;
11655;SDS011;5884;43.618;1.438;2023-04-25T17:12:02;17.17;;;14.90;;
11655;SDS011;5884;43.618;1.438;2023-04-25T17:14:30;15.57;;;13.97;;
11655;SDS011;5884;43.618;1.438;2023-04-25T17:16:59;15.27;;;12.20;;
11655;SDS011;5884;43.618;1.438;2023-04-25T17:19:28;12.73;;;11.53;;
11655;SDS011;5884;43.618;1.438;2023-04-25T17:21:57;11.03;;;9.97;;
11655;SDS011;5884;43.618;1.438;2023-04-25T17:24:24;8.47;;;7.30;;
11655;SDS011;5884;43.618;1.438;2023-04-25T17:26:52;8.10;;;6.63;;
11655;SDS011;5884;43.618;1.438;2023-04-25T17:29:20;5.40;;;4.90;;
11655;SDS011;5884;43.618;1.438;2023-04-25T17:31:48;4.87;;;4.00;;
11655;SDS011;5884;43.618;1.438;2023-04-25T17:34:16;5.13;;;4.70;;
11655;SDS011;5884;43.618;1.438;2023-04-25T17:36:44;3.60;;;3.30;;
11655;SDS011;5884;43.618;1.438;2023-04-25T17:39:13;5.00;;;3.20;;
11655;SDS011;5884;43.618;1.438;2023-04-25T17:41:41;1.93;;;1.73;;
11655;SDS011;5884;43.618;1.438;2023-04-25T17:44:08;1.67;;;1.33;;
11655;SDS011;5884;43.618;1.438;2023-04-25T17:46:36;2.13;;;1.50;;
11655;SDS011;5884;43.618;1.438;2023-04-25T17:49:03;1.73;;;1.30;;
11655;SDS011;5884;43.618;1.438;2023-04-25T17:51:30;1.87;;;1.53;;
11655;SDS011;5884;43.618;1.438;2023-04-25T17:53:57;3.07;;;1.90;;
11655;SDS011;5884;43.618;1.438;2023-04-25T17:56:26;2.00;;;1.73;;
11655;SDS011;5884;43.618;1.438;2023-04-25T17:58:53;4.00;;;3.50;;
11655;SDS011;5884;43.618;1.438;2023-04-25T18:01:20;4.67;;;3.90;;
11655;SDS011;5884;43.618;1.438;2023-04-25T18:03:48;6.50;;;4.20;;
11655;SDS011;5884;43.618;1.438;2023-04-25T18:06:15;5.07;;;3.53;;
11655;SDS011;5884;43.618;1.438;2023-04-25T18:08:43;4.93;;;2.80;;
11655;SDS011;5884;43.618;1.438;2023-04-25T18:11:11;3.37;;;2.10;;
11655;SDS011;5884;43.618;1.438;2023-04-25T18:13:40;4.00;;;1.70;;
11655;SDS011;5884;43.618;1.438;2023-04-25T18:16:08;2.43;;;1.83;;
11655;SDS011;5884;43.618;1.438;2023-04-25T18:18:35;3.80;;;2.03;;
11655;SDS011;5884;43.618;1.438;2023-04-25T18:21:02;3.37;;;2.10;;
11655;SDS011;5884;43.618;1.438;2023-04-25T18:23:31;2.80;;;1.83;;
11655;SDS011;5884;43.618;1.438;2023-04-25T18:25:59;2.90;;;2.60;;
11655;SDS011;5884;43.618;1.438;2023-04-25T18:28:26;4.70;;;2.97;;
11655;SDS011;5884;43.618;1.438;2023-04-25T18:30:55;5.43;;;4.27;;
11655;SDS011;5884;43.618;1.438;2023-04-25T18:33:22;5.23;;;3.53;;
11655;SDS011;5884;43.618;1.438;2023-04-25T18:35:50;4.87;;;3.40;;
11655;SDS011;5884;43.618;1.438;2023-04-25T18:38:17;4.87;;;3.20;;
11655;SDS011;5884;43.618;1.438;2023-04-25T18:40:45;4.23;;;2.97;;
11655;SDS011;5884;43.618;1.438;2023-04-25T18:43:14;4.73;;;3.47;;
11655;SDS011;5884;43.618;1.438;2023-04-25T18:45:41;3.83;;;3.07;;
11655;SDS011;5884;43.618;1.438;2023-04-25T18:48:10;5.13;;;3.10;;
11655;SDS011;5884;43.618;1.438;2023-04-25T18:50:37;5.37;;;3.37;;
11655;SDS011;5884;43.618;1.438;2023-04-25T18:53:07;7.93;;;3.10;;
11655;SDS011;5884;43.618;1.438;2023-04-25T18:55:35;5.07;;;3.00;;
11655;SDS011;5884;43.618;1.438;2023-04-25T18:58:02;3.60;;;3.10;;
11655;SDS011;5884;43.618;1.438;2023-04-25T19:00:30;3.80;;;2.97;;
11655;SDS011;5884;43.618;1.438;2023-04-25T19:02:58;5.90;;;2.90;;
11655;SDS011;5884;43.618;1.438;2023-04-25T19:05:29;4.20;;;2.67;;
11655;SDS011;5884;43.618;1.438;2023-04-25T19:07:57;4.80;;;2.57;;
11655;SDS011;5884;43.618;1.438;2023-04-25T19:10:24;4.93;;;3.43;;
11655;SDS011;5884;43.618;1.438;2023-04-25T19:12:53;6.27;;;4.80;;
11655;SDS011;5884;43.618;1.438;2023-04-25T19:15:20;4.43;;;3.13;;
11655;SDS011;5884;43.618;1.438;2023-04-25T19:17:47;4.10;;;3.00;;
11655;SDS011;5884;43.618;1.438;2023-04-25T19:20:15;4.13;;;3.10;;
11655;SDS011;5884;43.618;1.438;2023-04-25T19:22:46;4.70;;;4.30;;
11655;SDS011;5884;43.618;1.438;2023-04-25T19:25:13;4.40;;;3.80;;
11655;SDS011;5884;43.618;1.438;2023-04-25T19:27:41;5.50;;;3.50;;
11655;SDS011;5884;43.618;1.438;2023-04-25T19:30:09;6.20;;;3.70;;
11655;SDS011;5884;43.618;1.438;2023-04-25T19:32:37;4.70;;;4.13;;
11655;SDS011;5884;43.618;1.438;2023-04-25T19:35:05;6.10;;;4.50;;
11655;SDS011;5884;43.618;1.438;2023-04-25T19:37:34;5.20;;;4.53;;
11655;SDS011;5884;43.618;1.438;2023-04-25T19:40:04;6.93;;;5.00;;
11655;SDS011;5884;43.618;1.438;2023-04-25T19:42:32;5.23;;;4.73;;
11655;SDS011;5884;43.618;1.438;2023-04-25T19:45:00;9.17;;;5.17;;
11655;SDS011;5884;43.618;1.438;2023-04-25T19:47:27;5.13;;;4.57;;
11655;SDS011;5884;43.618;1.438;2023-04-25T19:49:55;7.47;;;5.30;;
11655;SDS011;5884;43.618;1.438;2023-04-25T19:52:22;8.17;;;5.27;;
11655;SDS011;5884;43.618;1.438;2023-04-25T19:54:49;7.33;;;5.60;;